LXGB/GIB METAR and TAF weather

Enter ICAO airport designator
Station Type Date Time Source
LXGB METAR 2019/12/13 16:50 UTC NOAA

LXGB 131650Z 26013KT 9999 SCT039 BKN300 17/13 Q1023 NOSIG RMK BLU BLU


Station Type Date Time Source
LXGB Decoded METAR 2019/12/13 16:50 UTC NOAA

Gibraltar, Gibraltar (LXGB) 36-09N 005-21W 0M
Dec 13, 2019 - 11:50 AM EST / 2019.12.13 1650 UTC
Wind: from the W (260 degrees) at 15 MPH (13 KT):0
Visibility: greater than 7 mile(s):0
Sky conditions: mostly cloudy
Temperature: 62 F (17 C)
Dew Point: 55 F (13 C)
Relative Humidity: 77%
Pressure (altimeter): 30.21 in. Hg (1023 hPa)
ob: LXGB 131650Z 26013KT 9999 SCT039 BKN300 17/13 Q1023 NOSIG RMK BLU BLU
cycle: 17

Station Type Date Time Source
LXGB TAF 2019/05/20 18:18 UTC NOAA

TAF
AMD TAF
AMD LXGB 202014Z 2018/2222 CNL

Example: see airport list